Time;durP1;ratioP1;P1;durP2;ratioP2;P2;SDS_P1;SDS_P2;PMS_P1;PMS_P2;Temp;Humidity;BMP_temperature;BMP_pressure;BME280_temperature;BME280_humidity;BME280_pressure;Samples;Min_cycle;Max_cycle;Signal;HPM_P1;HPM_P2
2024/02/28 00:00:38;;;;;;;0.52;0.50;;;10.10;99.90;;;;;;4979132;28;20034;-86
2024/02/28 00:03:04;;;;;;;0.50;0.50;;;10.10;99.90;;;;;;4982983;28;20347;-86
2024/02/28 00:05:31;;;;;;;0.60;0.60;;;10.00;99.90;;;;;;4981615;28;20030;-86
2024/02/28 00:07:56;;;;;;;0.65;0.50;;;10.00;99.90;;;;;;4982890;28;20040;-86
2024/02/28 00:10:22;;;;;;;1.02;0.70;;;9.90;99.90;;;;;;4979705;28;20125;-86
2024/02/28 00:12:47;;;;;;;0.45;0.45;;;9.90;99.90;;;;;;4979463;28;20069;-86
2024/02/28 00:15:13;;;;;;;0.43;0.43;;;9.90;99.90;;;;;;4981115;28;20030;-86
2024/02/28 00:17:42;;;;;;;0.38;0.38;;;9.90;99.90;;;;;;4981802;28;20029;-86
2024/02/28 00:20:09;;;;;;;0.57;0.40;;;9.90;99.90;;;;;;4980595;28;20118;-86
2024/02/28 00:22:36;;;;;;;0.88;0.40;;;9.90;99.90;;;;;;4982492;28;20034;-86
2024/02/28 00:25:03;;;;;;;0.40;0.40;;;9.90;99.90;;;;;;4980569;28;20130;-86
2024/02/28 00:27:28;;;;;;;0.20;0.20;;;9.90;99.90;;;;;;4983021;28;20026;-86
2024/02/28 00:29:54;;;;;;;1.02;0.50;;;9.90;99.90;;;;;;4982388;28;20485;-86
2024/02/28 00:32:20;;;;;;;1.00;0.30;;;9.90;99.90;;;;;;4982235;28;20105;-86
2024/02/28 00:34:46;;;;;;;2.63;0.60;;;9.90;99.90;;;;;;4983678;28;20126;-86
2024/02/28 00:37:12;;;;;;;0.40;0.40;;;9.90;99.90;;;;;;4981112;28;20536;-86
2024/02/28 00:39:37;;;;;;;0.65;0.47;;;9.90;99.90;;;;;;4984914;28;20034;-86
2024/02/28 00:42:03;;;;;;;0.30;0.30;;;9.90;99.90;;;;;;4984323;28;20527;-86
2024/02/28 00:44:29;;;;;;;0.30;0.30;;;9.90;99.90;;;;;;4985361;28;20041;-86
2024/02/28 00:46:54;;;;;;;2.35;0.40;;;9.90;99.90;;;;;;4983338;28;20030;-87
2024/02/28 00:49:20;;;;;;;4.28;0.70;;;10.00;99.90;;;;;;4985849;28;20029;-86
2024/02/28 00:51:46;;;;;;;1.10;0.32;;;9.90;99.90;;;;;;4983951;28;20019;-86
2024/02/28 00:54:12;;;;;;;0.57;0.35;;;9.90;99.90;;;;;;4981453;28;20476;-86
2024/02/28 00:56:38;;;;;;;0.75;0.50;;;9.90;99.90;;;;;;4982474;28;20026;-87
2024/02/28 00:59:06;;;;;;;0.40;0.40;;;9.90;99.90;;;;;;4985350;28;20034;-86
2024/02/28 01:01:32;;;;;;;0.50;0.50;;;9.90;99.90;;;;;;4985506;28;20496;-85
2024/02/28 01:03:57;;;;;;;0.70;0.70;;;9.90;99.90;;;;;;4980297;28;20042;-86
2024/02/28 01:06:23;;;;;;;1.85;0.60;;;9.90;99.90;;;;;;4984124;28;20034;-86
2024/02/28 01:08:49;;;;;;;0.38;0.38;;;9.90;99.90;;;;;;4983426;28;20022;-86
2024/02/28 01:11:15;;;;;;;0.77;0.40;;;9.90;99.90;;;;;;4982265;28;20370;-85
2024/02/28 01:13:40;;;;;;;0.50;0.50;;;10.00;99.90;;;;;;4979998;28;20278;-86
2024/02/28 01:16:06;;;;;;;0.47;0.30;;;9.90;99.90;;;;;;4979003;28;20023;-85
2024/02/28 01:18:32;;;;;;;1.02;0.28;;;10.00;99.90;;;;;;4983790;28;20031;-85
2024/02/28 01:20:58;;;;;;;0.40;0.40;;;10.00;99.90;;;;;;4982276;28;20030;-85
2024/02/28 01:23:23;;;;;;;0.47;0.47;;;10.00;99.90;;;;;;4983859;28;20074;-85
2024/02/28 01:25:49;;;;;;;0.30;0.30;;;10.00;99.90;;;;;;4980803;28;20038;-85
2024/02/28 01:28:15;;;;;;;0.30;0.30;;;10.00;99.90;;;;;;4982748;28;20026;-84
2024/02/28 01:30:40;;;;;;;1.10;0.40;;;10.00;99.90;;;;;;4979846;28;20027;-85
2024/02/28 01:33:06;;;;;;;0.50;0.30;;;10.10;99.90;;;;;;4983809;28;20022;-84
2024/02/28 01:35:32;;;;;;;0.30;0.30;;;10.10;99.90;;;;;;4980880;28;20029;-84
2024/02/28 01:37:57;;;;;;;0.40;0.40;;;10.10;99.90;;;;;;4982344;28;20032;-85
2024/02/28 01:40:23;;;;;;;1.08;0.65;;;10.10;99.90;;;;;;4983866;28;20030;-86
2024/02/28 01:42:49;;;;;;;0.52;0.40;;;10.10;99.90;;;;;;4979645;28;20077;-86
2024/02/28 01:45:14;;;;;;;0.80;0.43;;;10.10;99.90;;;;;;4981091;28;20473;-87
2024/02/28 01:47:43;;;;;;;0.40;0.40;;;10.10;99.90;;;;;;4985429;28;20041;-86
2024/02/28 01:50:12;;;;;;;0.40;0.40;;;10.10;99.90;;;;;;4981267;28;20049;-87
2024/02/28 01:52:39;;;;;;;1.75;0.40;;;10.10;99.90;;;;;;4982963;28;20393;-86
2024/02/28 01:55:06;;;;;;;0.30;0.30;;;10.00;99.90;;;;;;4977274;28;20093;-87
2024/02/28 01:57:32;;;;;;;1.25;0.32;;;10.00;99.90;;;;;;4979269;28;20038;-86
2024/02/28 01:59:59;;;;;;;0.30;0.30;;;10.00;99.90;;;;;;4981668;28;20465;-87
2024/02/28 02:02:24;;;;;;;0.22;0.22;;;9.90;99.90;;;;;;4981916;28;20071;-87
2024/02/28 02:04:52;;;;;;;0.30;0.30;;;9.90;99.90;;;;;;4982675;28;20039;-86
2024/02/28 02:07:19;;;;;;;0.50;0.50;;;9.90;99.90;;;;;;4983757;28;20066;-86
2024/02/28 02:09:46;;;;;;;0.20;0.20;;;9.90;99.90;;;;;;4981749;28;20105;-85
2024/02/28 02:12:12;;;;;;;2.05;0.35;;;9.80;99.90;;;;;;4981395;28;20037;-87
2024/02/28 02:14:38;;;;;;;0.45;0.30;;;9.80;99.90;;;;;;4978181;28;20117;-87
2024/02/28 02:17:03;;;;;;;0.45;0.30;;;9.70;99.90;;;;;;4990465;28;20150;-87
2024/02/28 02:19:29;;;;;;;0.65;0.40;;;9.70;99.90;;;;;;4979835;28;20076;-87
2024/02/28 02:21:58;;;;;;;0.50;0.50;;;9.70;99.90;;;;;;4982135;28;20400;-87
2024/02/28 02:24:24;;;;;;;0.22;0.22;;;9.70;99.90;;;;;;4983425;28;20065;-86
2024/02/28 02:26:52;;;;;;;0.30;0.30;;;9.70;99.90;;;;;;4985045;28;20039;-85
2024/02/28 02:29:17;;;;;;;0.70;0.70;;;9.70;99.90;;;;;;4987620;28;20042;-85
2024/02/28 02:31:43;;;;;;;1.67;0.40;;;9.70;99.90;;;;;;4983614;28;20054;-86
2024/02/28 02:34:09;;;;;;;2.10;0.40;;;9.70;99.90;;;;;;4985053;28;20018;-85
2024/02/28 02:36:34;;;;;;;1.52;0.40;;;9.70;99.90;;;;;;4984805;28;20085;-85
2024/02/28 02:39:00;;;;;;;1.17;0.45;;;9.70;99.90;;;;;;4984885;28;20030;-85
2024/02/28 02:41:26;;;;;;;0.28;0.28;;;9.70;99.90;;;;;;4986115;28;20429;-85
2024/02/28 02:43:52;;;;;;;0.80;0.50;;;9.70;99.90;;;;;;4982795;28;20050;-85
2024/02/28 02:46:18;;;;;;;0.63;0.32;;;9.80;99.90;;;;;;4988762;28;20400;-85
2024/02/28 02:48:43;;;;;;;0.47;0.47;;;9.70;99.90;;;;;;4986454;28;20105;-85
2024/02/28 02:51:09;;;;;;;0.30;0.30;;;9.70;99.90;;;;;;4983830;28;20037;-85
2024/02/28 02:53:35;;;;;;;0.40;0.40;;;9.70;99.90;;;;;;4986676;28;20105;-85
2024/02/28 02:56:03;;;;;;;0.38;0.38;;;9.70;99.90;;;;;;4983918;28;20026;-85
2024/02/28 02:58:29;;;;;;;0.80;0.50;;;9.70;99.90;;;;;;4986178;28;20524;-85
2024/02/28 03:00:55;;;;;;;0.40;0.40;;;9.70;99.90;;;;;;4985108;28;20030;-85
2024/02/28 03:03:20;;;;;;;0.25;0.25;;;9.70;99.90;;;;;;4984535;28;20089;-84
2024/02/28 03:05:46;;;;;;;1.65;0.40;;;9.70;99.90;;;;;;4982899;28;20053;-84
2024/02/28 03:08:12;;;;;;;0.98;0.40;;;9.70;99.90;;;;;;4985368;28;20038;-85
2024/02/28 03:10:39;;;;;;;0.60;0.32;;;9.80;99.90;;;;;;4982598;28;20026;-85
2024/02/28 03:13:06;;;;;;;1.10;0.28;;;9.80;99.90;;;;;;4984307;28;20026;-85
2024/02/28 03:15:32;;;;;;;0.20;0.20;;;9.80;99.90;;;;;;4985029;28;20388;-85
2024/02/28 03:17:58;;;;;;;0.52;0.45;;;9.80;99.90;;;;;;4988014;28;20030;-85
2024/02/28 03:20:23;;;;;;;0.40;0.30;;;9.80;99.90;;;;;;4987084;28;20496;-85
2024/02/28 03:22:49;;;;;;;0.20;0.20;;;9.80;99.90;;;;;;4983683;28;20034;-85
2024/02/28 03:25:15;;;;;;;0.40;0.40;;;9.80;99.90;;;;;;4985524;28;20049;-84
2024/02/28 03:27:41;;;;;;;0.20;0.20;;;9.80;99.90;;;;;;4983610;28;20042;-85
2024/02/28 03:30:07;;;;;;;0.22;0.22;;;9.80;99.90;;;;;;4982780;28;20125;-84
2024/02/28 03:32:32;;;;;;;0.40;0.28;;;9.80;99.90;;;;;;4981551;28;20128;-85
2024/02/28 03:34:58;;;;;;;0.30;0.30;;;9.90;99.90;;;;;;4984566;28;20484;-85
2024/02/28 03:37:24;;;;;;;0.30;0.30;;;9.80;99.90;;;;;;4982376;28;20072;-85
2024/02/28 03:39:49;;;;;;;1.00;0.35;;;9.80;99.90;;;;;;4983744;28;20116;-85
2024/02/28 03:42:15;;;;;;;0.22;0.22;;;9.90;99.90;;;;;;4984939;28;20039;-85
2024/02/28 03:44:41;;;;;;;0.30;0.30;;;9.90;99.90;;;;;;4984144;28;20350;-85
2024/02/28 03:47:06;;;;;;;0.40;0.38;;;9.90;99.90;;;;;;4989021;28;20062;-84
2024/02/28 03:49:32;;;;;;;0.38;0.30;;;9.90;99.90;;;;;;4985600;28;20031;-85
2024/02/28 03:51:58;;;;;;;0.93;0.30;;;9.90;99.90;;;;;;4983787;28;20022;-84
2024/02/28 03:54:24;;;;;;;1.20;0.30;;;9.90;99.90;;;;;;4984263;28;20031;-85
2024/02/28 03:56:49;;;;;;;0.40;0.40;;;9.90;99.90;;;;;;4982555;28;20473;-84
2024/02/28 03:59:15;;;;;;;0.20;0.20;;;9.90;99.90;;;;;;4987933;28;20080;-85
2024/02/28 04:01:41;;;;;;;0.40;0.40;;;10.00;99.90;;;;;;4981413;28;20374;-85
2024/02/28 04:04:07;;;;;;;0.40;0.40;;;10.00;99.90;;;;;;4984002;28;20121;-85
2024/02/28 04:06:33;;;;;;;0.30;0.30;;;10.10;99.90;;;;;;4982224;28;20034;-85
2024/02/28 04:09:02;;;;;;;0.68;0.30;;;10.20;99.90;;;;;;4982731;28;20030;-85
2024/02/28 04:11:28;;;;;;;0.63;0.40;;;10.30;99.90;;;;;;4985596;28;20030;-85
2024/02/28 04:13:54;;;;;;;0.45;0.43;;;10.30;99.90;;;;;;4980972;28;20027;-85
2024/02/28 04:16:19;;;;;;;0.38;0.38;;;10.30;99.90;;;;;;4983766;28;20022;-85
2024/02/28 04:18:45;;;;;;;1.35;0.30;;;10.30;99.90;;;;;;4982352;28;20029;-85
2024/02/28 04:21:11;;;;;;;0.73;0.30;;;10.30;99.90;;;;;;4982292;28;20117;-85
2024/02/28 04:23:38;;;;;;;1.10;0.68;;;10.40;99.90;;;;;;4988590;28;20026;-85
2024/02/28 04:26:04;;;;;;;2.70;0.40;;;10.30;99.90;;;;;;4980820;28;20051;-85
2024/02/28 04:28:29;;;;;;;0.45;0.45;;;10.30;99.90;;;;;;4986017;28;20029;-85
2024/02/28 04:30:55;;;;;;;0.47;0.47;;;10.20;99.90;;;;;;4983021;28;20026;-85
2024/02/28 04:33:22;;;;;;;2.05;0.30;;;10.30;99.90;;;;;;4982609;28;20480;-85
2024/02/28 04:35:48;;;;;;;0.73;0.40;;;10.30;99.90;;;;;;4982624;28;20078;-85
2024/02/28 04:38:14;;;;;;;1.10;0.40;;;10.30;99.90;;;;;;4983926;28;20038;-85
2024/02/28 04:40:39;;;;;;;0.55;0.40;;;10.30;99.90;;;;;;4982176;28;20030;-84
2024/02/28 04:43:05;;;;;;;1.25;0.70;;;10.30;99.90;;;;;;4984165;28;20109;-85
2024/02/28 04:45:31;;;;;;;0.82;0.65;;;10.20;99.90;;;;;;4981108;28;20031;-85
2024/02/28 04:48:00;;;;;;;0.30;0.30;;;10.20;99.90;;;;;;4984159;28;20122;-85
2024/02/28 04:50:25;;;;;;;1.58;0.40;;;10.10;99.90;;;;;;4981603;28;20034;-85
2024/02/28 04:52:51;;;;;;;2.75;0.50;;;10.10;99.90;;;;;;4983544;28;20023;-85
2024/02/28 04:55:17;;;;;;;0.50;0.50;;;10.10;99.90;;;;;;4981242;28;20027;-84
2024/02/28 04:57:42;;;;;;;0.40;0.30;;;10.10;99.90;;;;;;4984151;28;20039;-85
2024/02/28 05:00:08;;;;;;;0.50;0.50;;;10.00;99.90;;;;;;4982400;28;20255;-85
2024/02/28 05:02:34;;;;;;;1.45;0.50;;;10.00;99.90;;;;;;4984444;28;20041;-85
2024/02/28 05:05:00;;;;;;;1.55;0.75;;;10.00;99.90;;;;;;4980222;28;20031;-86
2024/02/28 05:07:25;;;;;;;0.88;0.77;;;10.00;99.90;;;;;;4983082;28;20042;-86
2024/02/28 05:09:51;;;;;;;0.57;0.40;;;9.90;99.90;;;;;;4981653;28;20117;-86
2024/02/28 05:12:17;;;;;;;0.80;0.55;;;9.90;99.90;;;;;;4982418;28;20018;-86
2024/02/28 05:14:43;;;;;;;0.47;0.47;;;9.80;99.90;;;;;;4979406;28;20050;-86
2024/02/28 05:17:08;;;;;;;0.43;0.40;;;9.80;99.90;;;;;;4990896;28;20399;-85
2024/02/28 05:19:34;;;;;;;0.50;0.50;;;9.80;99.90;;;;;;4984173;28;20042;-85
2024/02/28 05:22:01;;;;;;;1.75;0.50;;;9.80;99.90;;;;;;4982480;28;20027;-85
2024/02/28 05:24:26;;;;;;;0.60;0.50;;;9.70;99.90;;;;;;4981467;28;20413;-85
2024/02/28 05:26:52;;;;;;;0.55;0.55;;;9.70;99.90;;;;;;4980708;28;20141;-85
2024/02/28 05:29:18;;;;;;;0.40;0.40;;;9.70;99.90;;;;;;4982782;28;20030;-85
2024/02/28 05:31:43;;;;;;;0.43;0.40;;;9.80;99.90;;;;;;4979738;28;20022;-86
2024/02/28 05:34:09;;;;;;;0.95;0.70;;;9.80;99.90;;;;;;4982504;28;20069;-85
2024/02/28 05:36:35;;;;;;;0.55;0.40;;;9.70;99.90;;;;;;4982303;28;20481;-85
2024/02/28 05:39:01;;;;;;;0.70;0.38;;;9.70;99.90;;;;;;4982515;28;20109;-86
2024/02/28 05:41:27;;;;;;;0.93;0.40;;;9.70;99.90;;;;;;4982361;28;20560;-85
2024/02/28 05:43:53;;;;;;;0.40;0.40;;;9.70;99.90;;;;;;4979584;28;20114;-86
2024/02/28 05:46:20;;;;;;;0.90;0.25;;;9.70;99.90;;;;;;4985527;28;20046;-86
2024/02/28 05:48:46;;;;;;;0.40;0.40;;;9.70;99.90;;;;;;4986491;28;20031;-86
2024/02/28 05:51:15;;;;;;;0.40;0.40;;;9.70;99.90;;;;;;4983412;28;20018;-86
2024/02/28 05:53:42;;;;;;;0.82;0.50;;;9.80;99.90;;;;;;4983607;28;20027;-86
2024/02/28 05:56:16;;;;;;;0.32;0.32;;;9.80;99.90;;;;;;4982883;28;20209;-85
2024/02/28 05:58:44;;;;;;;2.72;0.30;;;9.80;99.90;;;;;;4981065;28;20081;-86
2024/02/28 06:01:10;;;;;;;0.73;0.30;;;9.90;99.90;;;;;;4984559;28;20065;-85
2024/02/28 06:03:37;;;;;;;0.45;0.30;;;10.00;99.90;;;;;;4979498;28;20477;-86
2024/02/28 06:06:04;;;;;;;0.55;0.45;;;10.00;99.90;;;;;;4987199;28;20092;-86
2024/02/28 06:08:34;;;;;;;0.30;0.30;;;10.00;99.90;;;;;;4990931;28;20026;-85
2024/02/28 06:11:01;;;;;;;0.40;0.40;;;10.00;99.90;;;;;;4987403;28;20018;-85
2024/02/28 06:13:28;;;;;;;0.30;0.30;;;10.00;99.90;;;;;;4979470;28;20035;-85
2024/02/28 06:15:53;;;;;;;0.32;0.25;;;10.00;99.90;;;;;;4985926;28;20085;-85
2024/02/28 06:18:19;;;;;;;1.58;0.40;;;10.00;99.90;;;;;;4987452;28;20503;-85
2024/02/28 06:20:45;;;;;;;1.55;0.60;;;10.00;99.90;;;;;;4979398;28;20038;-85
2024/02/28 06:23:10;;;;;;;0.60;0.60;;;10.00;99.90;;;;;;4981475;28;20121;-85
2024/02/28 06:25:36;;;;;;;0.73;0.28;;;10.00;99.90;;;;;;4980629;28;20092;-85
2024/02/28 06:28:02;;;;;;;0.50;0.50;;;10.10;99.90;;;;;;4990122;28;20530;-85
2024/02/28 06:30:28;;;;;;;0.38;0.38;;;10.10;99.90;;;;;;4988814;28;20033;-86
2024/02/28 06:32:54;;;;;;;1.25;0.40;;;10.10;99.90;;;;;;4989802;28;20029;-85
2024/02/28 06:35:20;;;;;;;0.43;0.43;;;10.20;99.90;;;;;;4989427;28;20031;-85
2024/02/28 06:37:49;;;;;;;0.57;0.57;;;10.20;99.90;;;;;;4988032;28;20027;-85
2024/02/28 06:40:15;;;;;;;4.88;0.52;;;10.20;99.90;;;;;;4979343;28;20108;-85
2024/02/28 06:42:41;;;;;;;0.85;0.52;;;10.20;99.90;;;;;;4980867;28;20084;-85
2024/02/28 06:45:08;;;;;;;0.30;0.30;;;10.20;99.90;;;;;;4981452;28;20476;-85
2024/02/28 06:47:37;;;;;;;0.30;0.30;;;10.20;99.90;;;;;;4976994;28;20035;-84
2024/02/28 06:50:05;;;;;;;2.53;0.70;;;10.20;99.90;;;;;;4989921;28;20029;-85
2024/02/28 06:52:34;;;;;;;0.90;0.40;;;10.20;99.90;;;;;;4979559;28;20030;-85
2024/02/28 06:55:03;;;;;;;0.90;0.40;;;10.20;99.90;;;;;;4982340;28;20015;-85
2024/02/28 06:57:32;;;;;;;0.68;0.60;;;10.20;99.90;;;;;;4982584;28;20032;-84
2024/02/28 06:59:57;;;;;;;0.60;0.60;;;10.20;99.90;;;;;;4979125;28;20023;-85
2024/02/28 07:02:23;;;;;;;0.47;0.47;;;10.30;99.90;;;;;;4977091;28;20552;-84
2024/02/28 07:04:49;;;;;;;0.50;0.50;;;10.30;99.90;;;;;;4979992;28;20026;-85
2024/02/28 07:07:14;;;;;;;2.50;0.50;;;10.30;99.90;;;;;;4982115;28;20037;-85
2024/02/28 07:09:40;;;;;;;0.43;0.43;;;10.30;99.90;;;;;;4978488;28;20384;-84
2024/02/28 07:12:06;;;;;;;0.57;0.50;;;10.40;99.90;;;;;;4981570;28;20110;-84
2024/02/28 07:14:32;;;;;;;0.77;0.57;;;10.40;99.90;;;;;;4988810;28;20531;-84
2024/02/28 07:16:57;;;;;;;1.35;0.80;;;10.40;99.90;;;;;;4984907;28;20061;-84
2024/02/28 07:19:23;;;;;;;0.60;0.60;;;10.50;99.90;;;;;;4986208;28;20467;-84
2024/02/28 07:21:49;;;;;;;1.90;0.60;;;10.50;99.90;;;;;;4985916;28;20026;-84
2024/02/28 07:24:14;;;;;;;0.65;0.55;;;10.60;99.90;;;;;;4982011;28;20247;-84
2024/02/28 07:26:41;;;;;;;1.00;0.60;;;10.60;99.90;;;;;;4987153;28;20046;-86
2024/02/28 07:29:07;;;;;;;4.10;0.77;;;10.70;99.90;;;;;;4987228;28;20500;-86
2024/02/28 07:31:32;;;;;;;0.70;0.52;;;10.70;99.90;;;;;;4985177;28;20109;-87
2024/02/28 07:33:58;;;;;;;1.65;0.75;;;10.70;99.90;;;;;;4984545;28;20065;-87
2024/02/28 07:36:24;;;;;;;0.47;0.47;;;10.70;99.90;;;;;;4986164;28;20030;-87
2024/02/28 07:38:49;;;;;;;1.50;0.60;;;10.80;99.90;;;;;;4982179;28;20030;-87
2024/02/28 07:41:15;;;;;;;0.80;0.60;;;10.80;99.90;;;;;;4984921;28;20026;-87
2024/02/28 07:43:44;;;;;;;2.17;0.60;;;10.80;99.90;;;;;;4984371;28;20109;-87
2024/02/28 07:46:11;;;;;;;1.70;0.80;;;10.80;99.90;;;;;;4982379;28;20026;-87
2024/02/28 07:48:37;;;;;;;1.27;0.60;;;10.80;99.90;;;;;;4981893;28;20029;-87
2024/02/28 07:51:07;;;;;;;2.92;1.00;;;10.90;99.90;;;;;;4985122;28;20101;-87
2024/02/28 07:53:32;;;;;;;1.00;0.50;;;10.90;99.90;;;;;;4983974;28;20028;-86
2024/02/28 07:55:58;;;;;;;1.15;0.57;;;10.90;99.90;;;;;;4984322;28;20018;-87
2024/02/28 07:58:24;;;;;;;3.53;0.77;;;10.90;99.90;;;;;;4984356;28;20023;-86
2024/02/28 08:00:53;;;;;;;0.57;0.57;;;11.00;99.90;;;;;;4981747;28;20031;-86
2024/02/28 08:03:19;;;;;;;0.90;0.60;;;11.00;99.90;;;;;;4984403;28;20034;-86
2024/02/28 08:05:46;;;;;;;3.13;0.70;;;11.00;99.90;;;;;;4984102;28;20109;-86
2024/02/28 08:08:11;;;;;;;0.65;0.50;;;11.00;99.90;;;;;;4982442;28;20050;-86
2024/02/28 08:10:38;;;;;;;0.68;0.57;;;11.10;99.90;;;;;;4985470;28;20058;-86
2024/02/28 08:13:04;;;;;;;1.17;0.70;;;11.10;99.90;;;;;;4982424;28;20101;-87
2024/02/28 08:15:31;;;;;;;1.25;0.70;;;11.10;99.90;;;;;;4980717;28;20031;-86
2024/02/28 08:17:58;;;;;;;0.82;0.73;;;11.10;99.90;;;;;;4982350;28;20085;-86
2024/02/28 08:20:26;;;;;;;4.65;0.85;;;11.10;99.90;;;;;;4981182;28;20033;-85
2024/02/28 08:22:57;;;;;;;1.25;0.43;;;11.20;99.90;;;;;;4982130;28;20030;-85
2024/02/28 08:25:22;;;;;;;1.17;0.40;;;11.20;99.90;;;;;;4983434;28;20042;-85
2024/02/28 08:27:48;;;;;;;1.20;0.90;;;11.20;99.90;;;;;;4981748;28;20038;-85
2024/02/28 08:30:14;;;;;;;1.90;0.80;;;11.20;99.90;;;;;;4983070;28;20527;-85
2024/02/28 08:32:41;;;;;;;0.68;0.68;;;11.30;99.90;;;;;;4982090;28;20030;-85
2024/02/28 08:35:09;;;;;;;0.98;0.93;;;11.30;99.90;;;;;;4982096;28;20015;-85
2024/02/28 08:37:35;;;;;;;2.78;1.10;;;11.30;99.90;;;;;;4984228;28;20034;-85
2024/02/28 08:40:01;;;;;;;2.70;0.90;;;11.30;99.90;;;;;;4982460;28;20033;-85
2024/02/28 08:42:27;;;;;;;2.40;1.15;;;11.30;99.90;;;;;;4981537;28;20126;-85
2024/02/28 08:44:56;;;;;;;1.92;1.10;;;11.30;99.90;;;;;;4981170;28;20049;-85
2024/02/28 08:47:25;;;;;;;2.15;0.70;;;11.30;99.90;;;;;;4985968;28;20030;-85
2024/02/28 08:49:52;;;;;;;2.65;0.80;;;11.40;99.90;;;;;;4985495;28;20077;-85
2024/02/28 08:52:18;;;;;;;4.15;1.10;;;11.50;99.90;;;;;;4981335;28;20440;-85
2024/02/28 08:54:43;;;;;;;1.75;1.00;;;11.50;99.90;;;;;;4984676;28;20026;-84
2024/02/28 08:57:10;;;;;;;1.70;1.35;;;11.50;99.90;;;;;;4983827;28;20042;-85
2024/02/28 08:59:36;;;;;;;2.40;1.42;;;11.50;99.90;;;;;;4981016;28;20081;-85
2024/02/28 09:02:01;;;;;;;9.15;7.70;;;11.50;99.90;;;;;;4978729;28;20023;-85
2024/02/28 09:04:27;;;;;;;6.28;5.68;;;11.50;99.90;;;;;;4982066;28;20027;-85
2024/02/28 09:06:55;;;;;;;9.77;7.35;;;11.50;99.90;;;;;;4980629;28;20031;-85
2024/02/28 09:09:21;;;;;;;5.45;3.17;;;11.50;99.90;;;;;;4980093;28;20019;-84
2024/02/28 09:11:47;;;;;;;2.47;2.30;;;11.60;99.90;;;;;;4985222;28;20531;-84
2024/02/28 09:14:12;;;;;;;4.15;1.80;;;11.60;99.90;;;;;;4983210;28;20011;-84
2024/02/28 09:16:38;;;;;;;2.40;1.85;;;11.70;99.90;;;;;;4982041;28;20054;-84
2024/02/28 09:19:04;;;;;;;2.88;1.58;;;11.70;99.90;;;;;;4988067;28;20027;-84
2024/02/28 09:21:30;;;;;;;1.83;1.25;;;11.80;99.90;;;;;;4984537;28;20015;-84
2024/02/28 09:23:56;;;;;;;3.83;2.40;;;11.90;99.90;;;;;;4988635;28;20023;-84
2024/02/28 09:26:22;;;;;;;6.28;2.85;;;11.90;99.90;;;;;;4982140;28;20053;-84
2024/02/28 09:28:47;;;;;;;2.80;2.60;;;12.00;99.90;;;;;;4982630;28;20473;-84
2024/02/28 09:31:15;;;;;;;3.75;2.22;;;12.10;99.90;;;;;;4980863;28;20077;-84
2024/02/28 09:33:41;;;;;;;3.00;2.80;;;12.10;99.90;;;;;;4982428;28;20027;-84
2024/02/28 09:36:07;;;;;;;3.50;2.20;;;12.20;99.90;;;;;;4984802;28;20050;-84
2024/02/28 09:38:34;;;;;;;3.22;1.25;;;12.20;99.90;;;;;;4979712;28;20027;-84
2024/02/28 09:41:01;;;;;;;4.30;1.38;;;12.20;99.90;;;;;;4981298;28;20369;-84
2024/02/28 09:43:31;;;;;;;4.95;2.00;;;12.30;99.90;;;;;;4982116;28;20117;-84
2024/02/28 09:46:00;;;;;;;2.65;2.20;;;12.40;99.90;;;;;;4982656;28;20085;-84
2024/02/28 09:48:30;;;;;;;3.58;1.92;;;12.50;99.90;;;;;;4981143;28;20034;-84
2024/02/28 09:51:00;;;;;;;12.98;2.63;;;12.60;99.90;;;;;;4982024;28;20505;-84
2024/02/28 09:53:26;;;;;;;3.50;2.80;;;12.60;99.90;;;;;;4979481;28;20117;-84
2024/02/28 09:55:52;;;;;;;11.93;2.60;;;12.70;99.90;;;;;;4983579;28;20018;-84
2024/02/28 09:58:21;;;;;;;5.80;2.55;;;12.80;99.90;;;;;;4982737;28;20660;-84
2024/02/28 10:00:48;;;;;;;3.85;2.20;;;12.80;99.90;;;;;;4981754;28;20058;-84
2024/02/28 10:03:18;;;;;;;4.15;1.98;;;12.80;99.90;;;;;;4984511;28;20015;-84
2024/02/28 10:05:46;;;;;;;3.40;2.22;;;12.90;99.90;;;;;;4980279;28;20058;-84
2024/02/28 10:08:15;;;;;;;5.50;1.88;;;12.90;99.90;;;;;;4980945;28;20054;-84
2024/02/28 10:10:48;;;;;;;4.47;1.83;;;12.90;99.90;;;;;;4982030;28;20069;-84
2024/02/28 10:13:17;;;;;;;2.20;1.90;;;13.00;99.90;;;;;;4981081;28;20023;-84
2024/02/28 10:15:43;;;;;;;1.27;1.20;;;13.00;99.90;;;;;;4984150;28;20030;-84
2024/02/28 10:18:08;;;;;;;2.47;1.00;;;13.10;99.10;;;;;;4980085;28;20023;-84
2024/02/28 10:20:34;;;;;;;1.40;0.98;;;13.10;97.70;;;;;;4983714;28;20041;-84
2024/02/28 10:23:08;;;;;;;2.78;1.30;;;13.20;97.70;;;;;;4979351;28;20480;-84
2024/02/28 10:25:41;;;;;;;3.03;0.60;;;13.10;99.90;;;;;;4980645;28;20632;-84
2024/02/28 10:28:07;;;;;;;1.42;0.85;;;13.10;83.10;;;;;;4982389;28;20121;-84
2024/02/28 10:30:32;;;;;;;1.13;0.80;;;13.10;75.00;;;;;;4979564;28;20147;-84
2024/02/28 10:32:58;;;;;;;4.15;1.30;;;13.00;89.00;;;;;;4982700;28;20022;-84
2024/02/28 10:35:25;;;;;;;2.72;1.35;;;13.00;99.90;;;;;;4989592;28;20424;-84
2024/02/28 10:37:52;;;;;;;5.53;1.73;;;12.90;99.90;;;;;;4982032;28;20038;-84
2024/02/28 10:40:20;;;;;;;3.22;2.60;;;12.80;99.90;;;;;;4982180;28;20030;-84
2024/02/28 10:42:46;;;;;;;4.40;3.72;;;12.70;99.90;;;;;;4979576;28;20477;-84
2024/02/28 10:45:12;;;;;;;4.35;2.17;;;12.70;99.90;;;;;;4984922;28;20026;-84
2024/02/28 10:47:39;;;;;;;3.33;1.80;;;12.70;99.90;;;;;;4985379;28;20502;-84
2024/02/28 10:50:05;;;;;;;3.65;2.03;;;12.70;99.90;;;;;;4983428;28;20022;-84
2024/02/28 10:52:33;;;;;;;1.10;1.00;;;12.70;99.90;;;;;;4985962;28;20358;-84
2024/02/28 10:55:01;;;;;;;0.95;0.80;;;12.70;99.90;;;;;;4982132;28;20046;-84
2024/02/28 10:57:29;;;;;;;0.70;0.47;;;12.70;99.90;;;;;;4982210;28;20073;-84
2024/02/28 10:59:59;;;;;;;1.42;0.88;;;12.60;99.90;;;;;;4982368;28;20220;-85
2024/02/28 11:02:25;;;;;;;2.75;0.85;;;12.60;99.90;;;;;;4978742;28;20038;-85
2024/02/28 11:04:54;;;;;;;1.30;1.20;;;12.50;99.90;;;;;;4983839;28;20023;-85
2024/02/28 11:07:21;;;;;;;2.50;1.17;;;12.50;99.90;;;;;;4990448;28;20054;-85
2024/02/28 11:09:47;;;;;;;1.33;1.23;;;12.50;99.90;;;;;;4983064;28;20069;-85
2024/02/28 11:12:29;;;;;;;1.98;0.80;;;12.50;99.90;;;;;;4989924;28;20484;-84
2024/02/28 11:15:05;;;;;;;1.67;0.98;;;12.50;99.90;;;;;;4983038;28;20085;-85
2024/02/28 11:17:32;;;;;;;0.95;0.68;;;12.50;99.90;;;;;;4986525;28;20058;-85
2024/02/28 11:19:58;;;;;;;1.27;0.90;;;12.40;99.90;;;;;;4987089;28;20037;-85
2024/02/28 11:22:27;;;;;;;3.20;1.08;;;12.40;99.90;;;;;;4984783;28;20092;-85
2024/02/28 11:24:56;;;;;;;4.72;1.45;;;12.40;99.90;;;;;;4982029;28;20034;-85
2024/02/28 11:27:25;;;;;;;1.67;1.15;;;12.30;99.90;;;;;;4986195;28;20122;-86
2024/02/28 11:29:51;;;;;;;2.78;1.20;;;12.30;99.90;;;;;;4985943;28;20050;-85
2024/02/28 11:32:17;;;;;;;3.50;1.80;;;12.20;99.90;;;;;;4983323;28;20053;-84
2024/02/28 11:34:43;;;;;;;1.88;1.45;;;12.20;99.90;;;;;;4985970;28;20472;-85
2024/02/28 11:37:09;;;;;;;2.60;1.60;;;12.20;99.90;;;;;;4986000;28;20034;-85
2024/02/28 11:39:36;;;;;;;1.83;1.10;;;12.10;99.90;;;;;;4984216;28;20034;-85
2024/02/28 11:42:28;;;;;;;2.28;1.73;;;12.10;99.90;;;;;;4985212;28;20635;-85
2024/02/28 11:44:57;;;;;;;;;;;12.10;99.90;;;;;;4979676;28;20039;-84
2024/02/28 11:47:23;;;;;;;4.80;1.90;;;12.10;99.90;;;;;;4983657;28;19963;-84
2024/02/28 11:49:49;;;;;;;6.50;1.50;;;12.10;99.90;;;;;;4983232;28;20110;-84
2024/02/28 11:52:15;;;;;;;1.15;1.02;;;12.10;99.90;;;;;;4981920;28;20035;-84
2024/02/28 11:54:41;;;;;;;5.25;1.65;;;12.10;99.90;;;;;;4983333;28;20023;-84
2024/02/28 11:57:10;;;;;;;8.88;1.75;;;12.20;99.90;;;;;;4980905;28;20026;-84
2024/02/28 11:59:36;;;;;;;3.25;1.25;;;12.20;99.90;;;;;;4982751;28;20559;-84
2024/02/28 12:02:12;;;;;;;4.72;1.88;;;12.20;99.90;;;;;;4984481;28;20102;-84
2024/02/28 12:04:38;;;;;;;6.97;4.45;;;12.20;99.90;;;;;;4974634;28;20035;-84
2024/02/28 12:07:04;;;;;;;8.07;4.80;;;12.20;99.90;;;;;;4974574;28;20023;-84
2024/02/28 12:09:33;;;;;;;9.32;4.95;;;12.20;99.90;;;;;;4994035;28;20678;-84
2024/02/28 12:12:03;;;;;;;3.30;2.33;;;12.20;99.90;;;;;;4995174;28;20031;-84
2024/02/28 12:14:32;;;;;;;3.25;1.10;;;12.10;99.90;;;;;;4995162;28;20110;-84
2024/02/28 12:16:58;;;;;;;5.43;1.13;;;12.10;99.90;;;;;;4990122;28;20042;-84
2024/02/28 12:19:24;;;;;;;3.42;1.20;;;12.10;99.90;;;;;;4992927;28;20030;-83
2024/02/28 12:21:50;;;;;;;1.15;1.02;;;12.10;99.90;;;;;;4989019;28;20113;-83
2024/02/28 12:24:16;;;;;;;4.28;1.48;;;12.10;99.90;;;;;;4982379;28;20118;-83
2024/02/28 12:26:41;;;;;;;2.88;2.30;;;12.00;99.90;;;;;;4980399;28;20126;-83
2024/02/28 12:29:10;;;;;;;5.45;3.53;;;12.10;99.90;;;;;;4985566;28;20060;-83
2024/02/28 12:31:36;;;;;;;5.18;3.75;;;12.00;99.90;;;;;;4983304;28;20027;-83
2024/02/28 12:34:03;;;;;;;3.17;2.83;;;12.00;99.90;;;;;;4982782;28;20117;-84
2024/02/28 12:36:30;;;;;;;4.28;3.17;;;11.90;99.90;;;;;;4986507;28;20031;-84
2024/02/28 12:38:57;;;;;;;6.22;3.60;;;11.90;99.90;;;;;;4984321;28;20073;-83
2024/02/28 12:41:23;;;;;;;6.97;3.80;;;11.90;99.90;;;;;;4984754;28;20452;-83
2024/02/28 12:43:50;;;;;;;4.85;2.75;;;11.80;99.90;;;;;;4984728;28;20033;-84
2024/02/28 12:46:15;;;;;;;11.02;3.17;;;11.80;99.90;;;;;;4975818;28;20082;-84